sensor_id;sensor_type;location;lat;lon;timestamp;temperature;humidity
78793;SHT31;68134;51.984;5.652;2023-02-28T00:00:35;3.5;62.8
78793;SHT31;68134;51.984;5.652;2023-02-28T00:03:05;3.5;62.5
78793;SHT31;68134;51.984;5.652;2023-02-28T00:05:35;3.5;62.7
78793;SHT31;68134;51.984;5.652;2023-02-28T00:08:05;3.5;62.9
78793;SHT31;68134;51.984;5.652;2023-02-28T00:10:35;3.5;62.9
78793;SHT31;68134;51.984;5.652;2023-02-28T00:13:06;3.5;62.9
78793;SHT31;68134;51.984;5.652;2023-02-28T00:15:38;3.5;63.4
78793;SHT31;68134;51.984;5.652;2023-02-28T00:18:08;3.5;63.4
78793;SHT31;68134;51.984;5.652;2023-02-28T00:20:39;3.6;63.0
78793;SHT31;68134;51.984;5.652;2023-02-28T00:23:11;3.6;63.0
78793;SHT31;68134;51.984;5.652;2023-02-28T00:25:41;3.7;63.0
78793;SHT31;68134;51.984;5.652;2023-02-28T00:28:11;3.7;63.1
78793;SHT31;68134;51.984;5.652;2023-02-28T00:30:40;3.8;63.0
78793;SHT31;68134;51.984;5.652;2023-02-28T00:33:11;3.8;62.8
78793;SHT31;68134;51.984;5.652;2023-02-28T00:35:40;3.9;62.7
78793;SHT31;68134;51.984;5.652;2023-02-28T00:38:10;3.9;62.7
78793;SHT31;68134;51.984;5.652;2023-02-28T00:40:40;4.0;62.6
78793;SHT31;68134;51.984;5.652;2023-02-28T00:43:10;4.0;62.6
78793;SHT31;68134;51.984;5.652;2023-02-28T00:45:39;4.0;62.5
78793;SHT31;68134;51.984;5.652;2023-02-28T00:48:11;4.1;62.5
78793;SHT31;68134;51.984;5.652;2023-02-28T00:50:41;4.1;62.3
78793;SHT31;68134;51.984;5.652;2023-02-28T00:53:10;4.2;62.2
78793;SHT31;68134;51.984;5.652;2023-02-28T00:55:40;4.2;62.3
78793;SHT31;68134;51.984;5.652;2023-02-28T00:58:10;4.2;62.2
78793;SHT31;68134;51.984;5.652;2023-02-28T01:00:39;4.3;62.0
78793;SHT31;68134;51.984;5.652;2023-02-28T01:03:09;4.3;61.9
78793;SHT31;68134;51.984;5.652;2023-02-28T01:05:38;4.3;61.7
78793;SHT31;68134;51.984;5.652;2023-02-28T01:08:10;4.4;61.8
78793;SHT31;68134;51.984;5.652;2023-02-28T01:10:41;4.4;61.8
78793;SHT31;68134;51.984;5.652;2023-02-28T01:13:11;4.4;61.8
78793;SHT31;68134;51.984;5.652;2023-02-28T01:15:46;4.4;61.7
78793;SHT31;68134;51.984;5.652;2023-02-28T01:18:19;4.4;61.7
78793;SHT31;68134;51.984;5.652;2023-02-28T01:20:48;4.4;61.8
78793;SHT31;68134;51.984;5.652;2023-02-28T01:23:19;4.4;62.0
78793;SHT31;68134;51.984;5.652;2023-02-28T01:25:51;4.5;61.8
78793;SHT31;68134;51.984;5.652;2023-02-28T01:28:20;4.5;61.8
78793;SHT31;68134;51.984;5.652;2023-02-28T01:30:50;4.5;61.7
78793;SHT31;68134;51.984;5.652;2023-02-28T01:33:22;4.5;61.7
78793;SHT31;68134;51.984;5.652;2023-02-28T01:35:59;4.5;62.0
78793;SHT31;68134;51.984;5.652;2023-02-28T01:38:29;4.5;61.9
78793;SHT31;68134;51.984;5.652;2023-02-28T01:40:59;4.5;61.8
78793;SHT31;68134;51.984;5.652;2023-02-28T01:43:32;4.5;61.8
78793;SHT31;68134;51.984;5.652;2023-02-28T01:46:02;4.6;61.5
78793;SHT31;68134;51.984;5.652;2023-02-28T01:48:34;4.6;61.4
78793;SHT31;68134;51.984;5.652;2023-02-28T01:51:10;4.6;61.5
78793;SHT31;68134;51.984;5.652;2023-02-28T01:53:45;4.6;61.5
78793;SHT31;68134;51.984;5.652;2023-02-28T01:56:20;4.6;61.6
78793;SHT31;68134;51.984;5.652;2023-02-28T01:58:54;4.6;61.5
78793;SHT31;68134;51.984;5.652;2023-02-28T02:01:27;4.6;61.5
78793;SHT31;68134;51.984;5.652;2023-02-28T02:04:00;4.6;61.5
78793;SHT31;68134;51.984;5.652;2023-02-28T02:06:37;4.6;61.5
78793;SHT31;68134;51.984;5.652;2023-02-28T02:09:08;4.7;61.5
78793;SHT31;68134;51.984;5.652;2023-02-28T02:11:40;4.7;61.3
78793;SHT31;68134;51.984;5.652;2023-02-28T02:14:35;4.7;61.6
78793;SHT31;68134;51.984;5.652;2023-02-28T02:17:15;4.7;61.9
78793;SHT31;68134;51.984;5.652;2023-02-28T02:22:02;4.7;61.5
78793;SHT31;68134;51.984;5.652;2023-02-28T02:25:34;4.8;61.3
78793;SHT31;68134;51.984;5.652;2023-02-28T02:28:28;4.8;61.0
78793;SHT31;68134;51.984;5.652;2023-02-28T02:32:56;4.8;60.8
78793;SHT31;68134;51.984;5.652;2023-02-28T02:35:32;4.8;60.6
78793;SHT31;68134;51.984;5.652;2023-02-28T02:38:09;4.9;61.1
78793;SHT31;68134;51.984;5.652;2023-02-28T02:40:44;4.9;61.1
78793;SHT31;68134;51.984;5.652;2023-02-28T02:43:22;4.9;61.0
78793;SHT31;68134;51.984;5.652;2023-02-28T02:45:55;4.9;60.7
78793;SHT31;68134;51.984;5.652;2023-02-28T02:48:30;4.9;60.5
78793;SHT31;68134;51.984;5.652;2023-02-28T02:51:05;4.9;59.7
78793;SHT31;68134;51.984;5.652;2023-02-28T02:53:43;4.9;60.3
78793;SHT31;68134;51.984;5.652;2023-02-28T02:56:20;5.0;60.0
78793;SHT31;68134;51.984;5.652;2023-02-28T02:58:57;5.0;59.8
78793;SHT31;68134;51.984;5.652;2023-02-28T03:01:31;5.0;59.9
78793;SHT31;68134;51.984;5.652;2023-02-28T03:04:05;5.0;60.1
78793;SHT31;68134;51.984;5.652;2023-02-28T03:06:37;5.0;60.5
78793;SHT31;68134;51.984;5.652;2023-02-28T03:09:06;5.0;60.0
78793;SHT31;68134;51.984;5.652;2023-02-28T03:11:38;5.0;60.2
78793;SHT31;68134;51.984;5.652;2023-02-28T03:14:33;5.0;59.7
78793;SHT31;68134;51.984;5.652;2023-02-28T03:17:33;5.0;59.2
78793;SHT31;68134;51.984;5.652;2023-02-28T03:20:15;5.0;59.6
78793;SHT31;68134;51.984;5.652;2023-02-28T03:23:03;5.0;60.1
78793;SHT31;68134;51.984;5.652;2023-02-28T03:25:39;5.0;58.7
78793;SHT31;68134;51.984;5.652;2023-02-28T03:28:17;5.0;58.6
78793;SHT31;68134;51.984;5.652;2023-02-28T03:30:52;5.0;59.1
78793;SHT31;68134;51.984;5.652;2023-02-28T03:33:28;5.0;59.0
78793;SHT31;68134;51.984;5.652;2023-02-28T03:36:04;5.0;58.6
78793;SHT31;68134;51.984;5.652;2023-02-28T03:38:39;5.0;58.9
78793;SHT31;68134;51.984;5.652;2023-02-28T03:41:15;5.0;59.3
78793;SHT31;68134;51.984;5.652;2023-02-28T03:43:50;5.0;59.6
78793;SHT31;68134;51.984;5.652;2023-02-28T03:46:26;5.0;59.6
78793;SHT31;68134;51.984;5.652;2023-02-28T03:49:02;5.0;59.0
78793;SHT31;68134;51.984;5.652;2023-02-28T03:51:35;5.0;58.4
78793;SHT31;68134;51.984;5.652;2023-02-28T03:54:09;5.0;58.8
78793;SHT31;68134;51.984;5.652;2023-02-28T03:56:47;5.0;58.4
78793;SHT31;68134;51.984;5.652;2023-02-28T03:59:23;5.0;58.6
78793;SHT31;68134;51.984;5.652;2023-02-28T04:01:59;5.0;57.8
78793;SHT31;68134;51.984;5.652;2023-02-28T04:04:32;5.0;57.4
78793;SHT31;68134;51.984;5.652;2023-02-28T04:07:05;5.0;55.2
78793;SHT31;68134;51.984;5.652;2023-02-28T04:09:35;5.0;54.5
78793;SHT31;68134;51.984;5.652;2023-02-28T04:12:07;5.0;54.7
78793;SHT31;68134;51.984;5.652;2023-02-28T04:14:37;5.0;54.6
78793;SHT31;68134;51.984;5.652;2023-02-28T04:17:07;5.0;54.7
78793;SHT31;68134;51.984;5.652;2023-02-28T04:19:37;5.0;55.5
78793;SHT31;68134;51.984;5.652;2023-02-28T04:22:08;5.0;55.0
78793;SHT31;68134;51.984;5.652;2023-02-28T04:24:38;4.9;55.4
78793;SHT31;68134;51.984;5.652;2023-02-28T04:27:10;4.9;55.1
78793;SHT31;68134;51.984;5.652;2023-02-28T04:29:42;4.9;55.3
78793;SHT31;68134;51.984;5.652;2023-02-28T04:32:12;4.9;55.3
78793;SHT31;68134;51.984;5.652;2023-02-28T04:34:42;4.9;56.2
78793;SHT31;68134;51.984;5.652;2023-02-28T04:37:12;4.9;56.3
78793;SHT31;68134;51.984;5.652;2023-02-28T04:39:42;4.9;56.0
78793;SHT31;68134;51.984;5.652;2023-02-28T04:42:12;4.9;56.6
78793;SHT31;68134;51.984;5.652;2023-02-28T04:44:42;4.9;56.4
78793;SHT31;68134;51.984;5.652;2023-02-28T04:47:13;4.9;56.9
78793;SHT31;68134;51.984;5.652;2023-02-28T04:49:43;4.9;56.9
78793;SHT31;68134;51.984;5.652;2023-02-28T04:52:12;4.9;57.5
78793;SHT31;68134;51.984;5.652;2023-02-28T04:54:42;4.9;57.7
78793;SHT31;68134;51.984;5.652;2023-02-28T04:57:12;4.9;58.0
78793;SHT31;68134;51.984;5.652;2023-02-28T04:59:41;4.9;58.4
78793;SHT31;68134;51.984;5.652;2023-02-28T05:02:11;4.9;58.3
78793;SHT31;68134;51.984;5.652;2023-02-28T05:04:43;4.9;58.5
78793;SHT31;68134;51.984;5.652;2023-02-28T05:07:13;4.9;58.6
78793;SHT31;68134;51.984;5.652;2023-02-28T05:09:42;4.8;58.7
78793;SHT31;68134;51.984;5.652;2023-02-28T05:12:12;4.8;58.5
78793;SHT31;68134;51.984;5.652;2023-02-28T05:14:41;4.8;58.7
78793;SHT31;68134;51.984;5.652;2023-02-28T05:17:13;4.8;58.7
78793;SHT31;68134;51.984;5.652;2023-02-28T05:19:43;4.8;59.1
78793;SHT31;68134;51.984;5.652;2023-02-28T05:22:15;4.8;59.8
78793;SHT31;68134;51.984;5.652;2023-02-28T05:24:45;4.8;59.0
78793;SHT31;68134;51.984;5.652;2023-02-28T05:27:17;4.8;59.2
78793;SHT31;68134;51.984;5.652;2023-02-28T05:29:48;4.8;59.1
78793;SHT31;68134;51.984;5.652;2023-02-28T05:32:17;4.8;59.5
78793;SHT31;68134;51.984;5.652;2023-02-28T05:34:47;4.8;58.8
78793;SHT31;68134;51.984;5.652;2023-02-28T05:37:16;4.8;59.1
78793;SHT31;68134;51.984;5.652;2023-02-28T05:39:46;4.8;59.3
78793;SHT31;68134;51.984;5.652;2023-02-28T05:42:15;4.8;59.6
78793;SHT31;68134;51.984;5.652;2023-02-28T05:44:45;4.8;59.6
78793;SHT31;68134;51.984;5.652;2023-02-28T05:47:17;4.8;59.1
78793;SHT31;68134;51.984;5.652;2023-02-28T05:49:47;4.8;59.7
78793;SHT31;68134;51.984;5.652;2023-02-28T05:52:17;4.8;59.3
78793;SHT31;68134;51.984;5.652;2023-02-28T05:54:47;4.8;59.7
78793;SHT31;68134;51.984;5.652;2023-02-28T05:57:17;4.9;59.2
78793;SHT31;68134;51.984;5.652;2023-02-28T05:59:47;4.9;58.6
78793;SHT31;68134;51.984;5.652;2023-02-28T06:02:17;4.9;59.5
78793;SHT31;68134;51.984;5.652;2023-02-28T06:04:47;4.9;58.7
78793;SHT31;68134;51.984;5.652;2023-02-28T06:07:17;4.9;58.4
78793;SHT31;68134;51.984;5.652;2023-02-28T06:09:46;4.9;58.7
78793;SHT31;68134;51.984;5.652;2023-02-28T06:12:16;4.9;58.9
78793;SHT31;68134;51.984;5.652;2023-02-28T06:14:46;4.9;58.7
78793;SHT31;68134;51.984;5.652;2023-02-28T06:17:17;4.9;58.4
78793;SHT31;68134;51.984;5.652;2023-02-28T06:19:47;4.9;58.7
78793;SHT31;68134;51.984;5.652;2023-02-28T06:22:17;4.9;58.8
78793;SHT31;68134;51.984;5.652;2023-02-28T06:24:49;4.9;58.8
78793;SHT31;68134;51.984;5.652;2023-02-28T06:27:22;4.9;59.0
78793;SHT31;68134;51.984;5.652;2023-02-28T06:29:54;4.9;59.2
78793;SHT31;68134;51.984;5.652;2023-02-28T06:32:26;4.9;59.2
78793;SHT31;68134;51.984;5.652;2023-02-28T06:34:56;4.9;59.4
78793;SHT31;68134;51.984;5.652;2023-02-28T06:37:26;4.9;59.3
78793;SHT31;68134;51.984;5.652;2023-02-28T06:39:56;4.9;58.9
78793;SHT31;68134;51.984;5.652;2023-02-28T06:42:25;5.0;59.5
78793;SHT31;68134;51.984;5.652;2023-02-28T06:44:56;5.0;59.5
78793;SHT31;68134;51.984;5.652;2023-02-28T06:47:26;5.0;58.9
78793;SHT31;68134;51.984;5.652;2023-02-28T06:49:55;5.0;59.1
78793;SHT31;68134;51.984;5.652;2023-02-28T06:52:27;5.0;59.1
78793;SHT31;68134;51.984;5.652;2023-02-28T06:54:56;5.0;59.5
78793;SHT31;68134;51.984;5.652;2023-02-28T06:57:31;5.0;59.5
78793;SHT31;68134;51.984;5.652;2023-02-28T07:00:05;5.0;59.5
78793;SHT31;68134;51.984;5.652;2023-02-28T07:02:36;5.0;58.7
78793;SHT31;68134;51.984;5.652;2023-02-28T07:05:06;5.0;59.0
78793;SHT31;68134;51.984;5.652;2023-02-28T07:07:36;5.0;58.8
78793;SHT31;68134;51.984;5.652;2023-02-28T07:10:09;5.0;58.7
78793;SHT31;68134;51.984;5.652;2023-02-28T07:12:38;5.0;58.7
78793;SHT31;68134;51.984;5.652;2023-02-28T07:15:09;5.0;58.6
78793;SHT31;68134;51.984;5.652;2023-02-28T07:17:39;5.0;58.7
78793;SHT31;68134;51.984;5.652;2023-02-28T07:20:09;5.0;58.0
78793;SHT31;68134;51.984;5.652;2023-02-28T07:22:39;5.1;57.1
78793;SHT31;68134;51.984;5.652;2023-02-28T07:25:09;5.1;57.0
78793;SHT31;68134;51.984;5.652;2023-02-28T07:27:39;5.1;57.0
78793;SHT31;68134;51.984;5.652;2023-02-28T07:30:09;5.1;56.8
78793;SHT31;68134;51.984;5.652;2023-02-28T07:32:39;5.2;56.6
78793;SHT31;68134;51.984;5.652;2023-02-28T07:35:09;5.2;55.4
78793;SHT31;68134;51.984;5.652;2023-02-28T07:37:39;5.2;54.6
78793;SHT31;68134;51.984;5.652;2023-02-28T07:40:11;5.3;54.6
78793;SHT31;68134;51.984;5.652;2023-02-28T07:42:41;5.3;54.3
78793;SHT31;68134;51.984;5.652;2023-02-28T07:45:11;5.3;54.2
78793;SHT31;68134;51.984;5.652;2023-02-28T07:47:42;5.4;53.5
78793;SHT31;68134;51.984;5.652;2023-02-28T07:50:14;5.4;53.2
78793;SHT31;68134;51.984;5.652;2023-02-28T07:52:44;5.4;52.5
78793;SHT31;68134;51.984;5.652;2023-02-28T07:55:14;5.5;52.1
78793;SHT31;68134;51.984;5.652;2023-02-28T07:57:46;5.5;52.0
78793;SHT31;68134;51.984;5.652;2023-02-28T08:00:16;5.6;51.2
78793;SHT31;68134;51.984;5.652;2023-02-28T08:02:46;5.6;51.0
78793;SHT31;68134;51.984;5.652;2023-02-28T08:05:16;5.6;50.7
78793;SHT31;68134;51.984;5.652;2023-02-28T08:07:45;5.7;49.0
78793;SHT31;68134;51.984;5.652;2023-02-28T08:10:15;5.7;49.3
78793;SHT31;68134;51.984;5.652;2023-02-28T08:12:45;5.9;48.5
78793;SHT31;68134;51.984;5.652;2023-02-28T08:15:14;6.2;48.7
78793;SHT31;68134;51.984;5.652;2023-02-28T08:17:44;6.9;45.7
78793;SHT31;68134;51.984;5.652;2023-02-28T08:20:16;7.6;42.5
78793;SHT31;68134;51.984;5.652;2023-02-28T08:22:46;8.2;39.8
78793;SHT31;68134;51.984;5.652;2023-02-28T08:25:16;8.7;35.8
78793;SHT31;68134;51.984;5.652;2023-02-28T08:27:45;9.1;35.6
78793;SHT31;68134;51.984;5.652;2023-02-28T08:30:16;9.5;34.0
78793;SHT31;68134;51.984;5.652;2023-02-28T08:32:45;9.8;32.2
78793;SHT31;68134;51.984;5.652;2023-02-28T08:35:17;10.0;31.5
78793;SHT31;68134;51.984;5.652;2023-02-28T08:37:49;10.0;31.1
78793;SHT31;68134;51.984;5.652;2023-02-28T08:40:19;9.9;30.1
78793;SHT31;68134;51.984;5.652;2023-02-28T08:42:49;9.8;31.2
78793;SHT31;68134;51.984;5.652;2023-02-28T08:45:21;9.7;31.2
78793;SHT31;68134;51.984;5.652;2023-02-28T08:47:50;9.6;31.6
78793;SHT31;68134;51.984;5.652;2023-02-28T08:50:20;9.4;30.1
78793;SHT31;68134;51.984;5.652;2023-02-28T08:52:52;9.3;31.6
78793;SHT31;68134;51.984;5.652;2023-02-28T08:55:22;9.2;31.5
78793;SHT31;68134;51.984;5.652;2023-02-28T08:57:51;9.4;31.8
78793;SHT31;68134;51.984;5.652;2023-02-28T09:00:23;9.7;32.6
78793;SHT31;68134;51.984;5.652;2023-02-28T09:02:52;10.1;32.3
78793;SHT31;68134;51.984;5.652;2023-02-28T09:05:22;10.6;30.5
78793;SHT31;68134;51.984;5.652;2023-02-28T09:07:51;11.1;29.7
78793;SHT31;68134;51.984;5.652;2023-02-28T09:10:21;11.4;29.4
78793;SHT31;68134;51.984;5.652;2023-02-28T09:12:51;11.7;28.5
78793;SHT31;68134;51.984;5.652;2023-02-28T09:15:20;12.0;27.9
78793;SHT31;68134;51.984;5.652;2023-02-28T09:17:50;12.3;27.5
78793;SHT31;68134;51.984;5.652;2023-02-28T09:20:19;12.4;27.7
78793;SHT31;68134;51.984;5.652;2023-02-28T09:22:49;12.7;26.9
78793;SHT31;68134;51.984;5.652;2023-02-28T09:25:19;12.9;25.9
78793;SHT31;68134;51.984;5.652;2023-02-28T09:27:48;13.2;25.9
78793;SHT31;68134;51.984;5.652;2023-02-28T09:30:18;13.4;24.5
78793;SHT31;68134;51.984;5.652;2023-02-28T09:32:48;13.5;23.7
78793;SHT31;68134;51.984;5.652;2023-02-28T09:35:20;13.7;24.0
78793;SHT31;68134;51.984;5.652;2023-02-28T09:37:51;13.9;23.5
78793;SHT31;68134;51.984;5.652;2023-02-28T09:40:24;14.1;22.2
78793;SHT31;68134;51.984;5.652;2023-02-28T09:42:56;14.3;22.9
78793;SHT31;68134;51.984;5.652;2023-02-28T09:45:30;14.4;23.6
78793;SHT31;68134;51.984;5.652;2023-02-28T09:48:04;14.6;22.8
78793;SHT31;68134;51.984;5.652;2023-02-28T09:50:40;14.9;22.5
78793;SHT31;68134;51.984;5.652;2023-02-28T09:53:19;15.1;21.8
78793;SHT31;68134;51.984;5.652;2023-02-28T09:55:55;15.4;22.3
78793;SHT31;68134;51.984;5.652;2023-02-28T09:58:31;15.5;21.2
78793;SHT31;68134;51.984;5.652;2023-02-28T10:01:06;15.6;20.5
78793;SHT31;68134;51.984;5.652;2023-02-28T10:03:48;15.6;21.1
78793;SHT31;68134;51.984;5.652;2023-02-28T10:06:26;15.7;21.0
78793;SHT31;68134;51.984;5.652;2023-02-28T10:09:02;15.8;21.1
78793;SHT31;68134;51.984;5.652;2023-02-28T10:11:36;15.9;20.9
78793;SHT31;68134;51.984;5.652;2023-02-28T10:14:12;16.0;20.7
78793;SHT31;68134;51.984;5.652;2023-02-28T10:16:46;16.1;20.7
78793;SHT31;68134;51.984;5.652;2023-02-28T10:19:22;16.2;19.6
78793;SHT31;68134;51.984;5.652;2023-02-28T10:21:59;16.2;19.8
78793;SHT31;68134;51.984;5.652;2023-02-28T10:24:33;16.3;20.0
78793;SHT31;68134;51.984;5.652;2023-02-28T10:27:15;16.3;20.2
78793;SHT31;68134;51.984;5.652;2023-02-28T10:29:47;16.4;20.7
78793;SHT31;68134;51.984;5.652;2023-02-28T10:32:20;16.5;20.9
78793;SHT31;68134;51.984;5.652;2023-02-28T10:34:57;16.6;20.5
78793;SHT31;68134;51.984;5.652;2023-02-28T10:37:27;16.8;20.6
78793;SHT31;68134;51.984;5.652;2023-02-28T10:39:59;17.0;21.1
78793;SHT31;68134;51.984;5.652;2023-02-28T10:42:30;17.3;21.3
78793;SHT31;68134;51.984;5.652;2023-02-28T10:45:13;17.6;20.3
78793;SHT31;68134;51.984;5.652;2023-02-28T10:47:52;17.8;19.8
78793;SHT31;68134;51.984;5.652;2023-02-28T10:50:35;18.0;19.6
78793;SHT31;68134;51.984;5.652;2023-02-28T10:53:14;18.2;20.1
78793;SHT31;68134;51.984;5.652;2023-02-28T10:55:45;18.4;20.0
78793;SHT31;68134;51.984;5.652;2023-02-28T10:58:24;18.7;19.9
78793;SHT31;68134;51.984;5.652;2023-02-28T11:00:56;19.0;19.4
78793;SHT31;68134;51.984;5.652;2023-02-28T11:03:30;19.3;18.7
78793;SHT31;68134;51.984;5.652;2023-02-28T11:06:08;19.5;19.1
78793;SHT31;68134;51.984;5.652;2023-02-28T11:08:51;19.7;18.6
78793;SHT31;68134;51.984;5.652;2023-02-28T11:11:25;19.8;17.9
78793;SHT31;68134;51.984;5.652;2023-02-28T11:13:57;19.9;18.3
78793;SHT31;68134;51.984;5.652;2023-02-28T11:16:37;19.9;18.1
78793;SHT31;68134;51.984;5.652;2023-02-28T11:19:17;19.9;17.4
78793;SHT31;68134;51.984;5.652;2023-02-28T11:21:54;19.6;18.0
78793;SHT31;68134;51.984;5.652;2023-02-28T11:24:27;19.4;18.1
78793;SHT31;68134;51.984;5.652;2023-02-28T11:26:58;19.4;17.8
78793;SHT31;68134;51.984;5.652;2023-02-28T11:29:30;19.4;18.7
78793;SHT31;68134;51.984;5.652;2023-02-28T11:32:07;19.4;18.8
78793;SHT31;68134;51.984;5.652;2023-02-28T11:34:41;19.6;18.6
78793;SHT31;68134;51.984;5.652;2023-02-28T11:37:14;19.9;17.6
78793;SHT31;68134;51.984;5.652;2023-02-28T11:39:45;20.1;17.6
78793;SHT31;68134;51.984;5.652;2023-02-28T11:42:40;20.3;17.7
78793;SHT31;68134;51.984;5.652;2023-02-28T11:45:26;20.5;18.5
78793;SHT31;68134;51.984;5.652;2023-02-28T11:48:08;20.6;18.1
78793;SHT31;68134;51.984;5.652;2023-02-28T11:50:52;20.8;18.2
78793;SHT31;68134;51.984;5.652;2023-02-28T11:53:39;21.1;17.7
78793;SHT31;68134;51.984;5.652;2023-02-28T11:56:21;21.3;17.0
78793;SHT31;68134;51.984;5.652;2023-02-28T11:59:04;21.4;17.3
78793;SHT31;68134;51.984;5.652;2023-02-28T12:01:53;21.5;16.6
78793;SHT31;68134;51.984;5.652;2023-02-28T12:04:35;21.5;17.0
78793;SHT31;68134;51.984;5.652;2023-02-28T12:07:15;21.6;16.0
78793;SHT31;68134;51.984;5.652;2023-02-28T12:09:58;21.6;16.6
78793;SHT31;68134;51.984;5.652;2023-02-28T12:12:41;21.7;17.0
78793;SHT31;68134;51.984;5.652;2023-02-28T12:16:43;21.8;16.4
78793;SHT31;68134;51.984;5.652;2023-02-28T12:19:20;21.9;16.1
78793;SHT31;68134;51.984;5.652;2023-02-28T12:22:41;21.9;16.0
78793;SHT31;68134;51.984;5.652;2023-02-28T12:25:35;22.0;16.0
78793;SHT31;68134;51.984;5.652;2023-02-28T12:28:13;22.0;16.1
78793;SHT31;68134;51.984;5.652;2023-02-28T12:30:51;22.0;16.2
78793;SHT31;68134;51.984;5.652;2023-02-28T12:33:26;22.1;15.9
78793;SHT31;68134;51.984;5.652;2023-02-28T12:35:59;22.2;15.7
78793;SHT31;68134;51.984;5.652;2023-02-28T12:38:36;22.3;15.4
78793;SHT31;68134;51.984;5.652;2023-02-28T12:41:15;22.3;16.2
78793;SHT31;68134;51.984;5.652;2023-02-28T12:43:50;22.3;15.9
78793;SHT31;68134;51.984;5.652;2023-02-28T12:46:28;22.4;15.9
78793;SHT31;68134;51.984;5.652;2023-02-28T12:49:04;22.5;15.8
78793;SHT31;68134;51.984;5.652;2023-02-28T12:51:35;22.5;15.7
78793;SHT31;68134;51.984;5.652;2023-02-28T12:54:22;22.5;15.1
78793;SHT31;68134;51.984;5.652;2023-02-28T12:57:01;22.4;15.2
78793;SHT31;68134;51.984;5.652;2023-02-28T12:59:39;21.6;15.8
78793;SHT31;68134;51.984;5.652;2023-02-28T13:02:46;21.4;16.6
78793;SHT31;68134;51.984;5.652;2023-02-28T13:06:14;21.4;16.5
78793;SHT31;68134;51.984;5.652;2023-02-28T13:09:03;21.6;16.3
78793;SHT31;68134;51.984;5.652;2023-02-28T13:11:42;21.7;16.3
78793;SHT31;68134;51.984;5.652;2023-02-28T13:14:23;21.8;16.2
78793;SHT31;68134;51.984;5.652;2023-02-28T13:16:57;22.1;16.2
78793;SHT31;68134;51.984;5.652;2023-02-28T13:19:29;22.2;16.3
78793;SHT31;68134;51.984;5.652;2023-02-28T13:22:01;22.4;16.1
78793;SHT31;68134;51.984;5.652;2023-02-28T13:26:21;22.5;15.5
78793;SHT31;68134;51.984;5.652;2023-02-28T13:29:29;22.6;15.6
78793;SHT31;68134;51.984;5.652;2023-02-28T13:38:22;22.8;15.4
78793;SHT31;68134;51.984;5.652;2023-02-28T13:40:54;22.9;15.3
78793;SHT31;68134;51.984;5.652;2023-02-28T13:43:59;22.9;14.9
78793;SHT31;68134;51.984;5.652;2023-02-28T13:46:23;22.9;15.1
78793;SHT31;68134;51.984;5.652;2023-02-28T13:48:53;22.8;15.1
78793;SHT31;68134;51.984;5.652;2023-02-28T13:51:40;22.7;15.1
78793;SHT31;68134;51.984;5.652;2023-02-28T13:54:19;22.7;15.4
78793;SHT31;68134;51.984;5.652;2023-02-28T13:56:57;22.7;15.4
78793;SHT31;68134;51.984;5.652;2023-02-28T13:59:40;22.7;15.6
78793;SHT31;68134;51.984;5.652;2023-02-28T14:02:44;22.8;14.9
78793;SHT31;68134;51.984;5.652;2023-02-28T14:05:18;22.8;15.3
78793;SHT31;68134;51.984;5.652;2023-02-28T14:07:54;22.9;14.9
78793;SHT31;68134;51.984;5.652;2023-02-28T14:10:30;22.9;14.9
78793;SHT31;68134;51.984;5.652;2023-02-28T14:13:03;22.8;15.0
78793;SHT31;68134;51.984;5.652;2023-02-28T14:17:24;22.6;14.8
78793;SHT31;68134;51.984;5.652;2023-02-28T14:19:57;22.3;15.2
78793;SHT31;68134;51.984;5.652;2023-02-28T14:22:48;22.2;15.3
78793;SHT31;68134;51.984;5.652;2023-02-28T14:25:32;22.1;15.5
78793;SHT31;68134;51.984;5.652;2023-02-28T14:28:14;22.1;15.9
78793;SHT31;68134;51.984;5.652;2023-02-28T14:30:59;22.0;16.1
78793;SHT31;68134;51.984;5.652;2023-02-28T14:33:46;22.0;15.9
78793;SHT31;68134;51.984;5.652;2023-02-28T14:36:23;21.9;16.2
78793;SHT31;68134;51.984;5.652;2023-02-28T14:39:01;21.9;15.8
78793;SHT31;68134;51.984;5.652;2023-02-28T14:41:37;21.9;15.9
78793;SHT31;68134;51.984;5.652;2023-02-28T14:44:16;21.9;15.6
78793;SHT31;68134;51.984;5.652;2023-02-28T14:46:49;21.9;15.6
78793;SHT31;68134;51.984;5.652;2023-02-28T14:49:23;21.9;15.4
78793;SHT31;68134;51.984;5.652;2023-02-28T14:52:06;21.8;15.8
78793;SHT31;68134;51.984;5.652;2023-02-28T14:54:38;21.7;15.9
78793;SHT31;68134;51.984;5.652;2023-02-28T14:57:23;21.7;15.7
78793;SHT31;68134;51.984;5.652;2023-02-28T15:00:02;21.5;15.7
78793;SHT31;68134;51.984;5.652;2023-02-28T15:02:39;21.3;16.0
78793;SHT31;68134;51.984;5.652;2023-02-28T15:05:25;21.1;16.4
78793;SHT31;68134;51.984;5.652;2023-02-28T15:08:09;21.0;16.5
78793;SHT31;68134;51.984;5.652;2023-02-28T15:10:43;21.0;15.8
78793;SHT31;68134;51.984;5.652;2023-02-28T15:13:15;20.9;16.5
78793;SHT31;68134;51.984;5.652;2023-02-28T15:15:48;20.8;16.8
78793;SHT31;68134;51.984;5.652;2023-02-28T15:18:38;20.7;16.2
78793;SHT31;68134;51.984;5.652;2023-02-28T15:21:13;20.6;16.4
78793;SHT31;68134;51.984;5.652;2023-02-28T15:23:45;20.4;16.3
78793;SHT31;68134;51.984;5.652;2023-02-28T15:26:20;20.3;16.9
78793;SHT31;68134;51.984;5.652;2023-02-28T15:28:56;20.1;17.1
78793;SHT31;68134;51.984;5.652;2023-02-28T15:31:30;20.0;17.2
78793;SHT31;68134;51.984;5.652;2023-02-28T15:34:05;19.8;17.6
78793;SHT31;68134;51.984;5.652;2023-02-28T15:36:35;19.7;17.6
78793;SHT31;68134;51.984;5.652;2023-02-28T15:39:21;19.5;17.4
78793;SHT31;68134;51.984;5.652;2023-02-28T15:41:51;19.3;17.2
78793;SHT31;68134;51.984;5.652;2023-02-28T15:44:27;19.1;17.5
78793;SHT31;68134;51.984;5.652;2023-02-28T15:47:01;19.0;18.0
78793;SHT31;68134;51.984;5.652;2023-02-28T15:49:44;18.9;18.0
78793;SHT31;68134;51.984;5.652;2023-02-28T15:52:17;18.8;18.1
78793;SHT31;68134;51.984;5.652;2023-02-28T15:54:48;18.6;18.2
78793;SHT31;68134;51.984;5.652;2023-02-28T15:57:21;18.4;18.3
78793;SHT31;68134;51.984;5.652;2023-02-28T15:59:54;18.1;18.5
78793;SHT31;68134;51.984;5.652;2023-02-28T16:02:32;17.8;19.7
78793;SHT31;68134;51.984;5.652;2023-02-28T16:05:20;17.6;19.4
78793;SHT31;68134;51.984;5.652;2023-02-28T16:07:58;17.2;19.8
78793;SHT31;68134;51.984;5.652;2023-02-28T16:10:30;16.9;19.9
78793;SHT31;68134;51.984;5.652;2023-02-28T16:13:02;16.5;20.7
78793;SHT31;68134;51.984;5.652;2023-02-28T16:15:37;16.3;20.4
78793;SHT31;68134;51.984;5.652;2023-02-28T16:18:11;16.0;21.0
78793;SHT31;68134;51.984;5.652;2023-02-28T16:20:42;15.8;21.5
78793;SHT31;68134;51.984;5.652;2023-02-28T16:23:12;15.6;22.7
78793;SHT31;68134;51.984;5.652;2023-02-28T16:25:44;15.5;23.3
78793;SHT31;68134;51.984;5.652;2023-02-28T16:28:19;15.3;23.6
78793;SHT31;68134;51.984;5.652;2023-02-28T16:30:51;15.2;23.0
78793;SHT31;68134;51.984;5.652;2023-02-28T16:33:21;15.0;23.6
78793;SHT31;68134;51.984;5.652;2023-02-28T16:35:52;14.9;23.7
78793;SHT31;68134;51.984;5.652;2023-02-28T16:38:21;14.7;23.5
78793;SHT31;68134;51.984;5.652;2023-02-28T16:40:55;14.6;23.4
78793;SHT31;68134;51.984;5.652;2023-02-28T16:43:26;14.4;23.5
78793;SHT31;68134;51.984;5.652;2023-02-28T16:45:58;14.3;23.4
78793;SHT31;68134;51.984;5.652;2023-02-28T16:48:29;14.1;23.8
78793;SHT31;68134;51.984;5.652;2023-02-28T16:50:59;13.9;24.1
78793;SHT31;68134;51.984;5.652;2023-02-28T16:53:31;13.8;24.7
78793;SHT31;68134;51.984;5.652;2023-02-28T16:56:02;13.6;24.5
78793;SHT31;68134;51.984;5.652;2023-02-28T16:58:34;13.5;25.8
78793;SHT31;68134;51.984;5.652;2023-02-28T17:01:05;13.4;25.1
78793;SHT31;68134;51.984;5.652;2023-02-28T17:03:34;13.3;25.4
78793;SHT31;68134;51.984;5.652;2023-02-28T17:06:05;13.2;25.6
78793;SHT31;68134;51.984;5.652;2023-02-28T17:08:37;13.0;26.0
78793;SHT31;68134;51.984;5.652;2023-02-28T17:11:08;12.9;26.7